Time;durP1;ratioP1;P1;durP2;ratioP2;P2;SDS_P1;SDS_P2;PMS_P1;PMS_P2;Temp;Humidity;BMP_temperature;BMP_pressure;BME280_temperature;BME280_humidity;BME280_pressure;Samples;Min_cycle;Max_cycle;Signal;HPM_P1;HPM_P2
2021/04/13 00:02:17;;;;;;;8.90;6.95;;;5.00;99.90;;;;;;5089699;28;20199;-80
2021/04/13 00:04:45;;;;;;;9.23;6.90;;;5.10;99.90;;;;;;5091055;28;20164;-80
2021/04/13 00:07:12;;;;;;;7.63;6.93;;;5.10;99.90;;;;;;5090923;28;20164;-81
2021/04/13 00:09:39;;;;;;;8.77;7.93;;;5.20;99.90;;;;;;5091160;28;20175;-81
2021/04/13 00:12:10;;;;;;;8.55;7.15;;;5.20;99.90;;;;;;5073195;28;20188;-81
2021/04/13 00:14:44;;;;;;;8.45;7.03;;;5.20;99.90;;;;;;5093504;28;20179;-79
2021/04/13 00:17:14;;;;;;;7.00;6.10;;;5.20;99.90;;;;;;5089676;28;20168;-79
2021/04/13 00:20:00;;;;;;;7.80;6.05;;;5.20;99.90;;;;;;5073815;28;20168;-79
2021/04/13 00:22:27;;;;;;;8.50;7.60;;;5.20;99.90;;;;;;5091216;28;20298;-79
2021/04/13 00:24:54;;;;;;;7.40;6.70;;;5.10;99.90;;;;;;5094844;28;20164;-79
2021/04/13 00:27:23;;;;;;;8.43;7.13;;;5.10;99.90;;;;;;5094026;28;20300;-80
2021/04/13 00:29:49;;;;;;;8.52;6.70;;;5.10;99.90;;;;;;5076659;28;20163;-79
2021/04/13 00:32:22;;;;;;;9.07;8.20;;;5.10;99.90;;;;;;5094614;28;20547;-79
2021/04/13 00:35:13;;;;;;;8.85;7.90;;;5.00;99.90;;;;;;5079296;28;20218;-79
2021/04/13 00:37:39;;;;;;;9.48;7.70;;;4.90;99.90;;;;;;5063236;28;20167;-80
2021/04/13 00:40:29;;;;;;;9.13;8.30;;;4.90;99.90;;;;;;5094602;28;20210;-79
2021/04/13 00:43:01;;;;;;;9.75;8.27;;;4.80;99.90;;;;;;5076181;28;20569;-80
2021/04/13 00:45:37;;;;;;;9.63;8.48;;;4.80;99.90;;;;;;5094487;28;20199;-80
2021/04/13 00:48:05;;;;;;;10.35;9.20;;;4.70;99.90;;;;;;5076037;28;20514;-81
2021/04/13 00:50:42;;;;;;;12.25;9.32;;;4.70;99.90;;;;;;5079047;28;20186;-81
2021/04/13 00:53:19;;;;;;;8.68;7.78;;;4.70;99.90;;;;;;5077444;28;20171;-81
2021/04/13 00:55:54;;;;;;;9.93;8.98;;;4.60;99.90;;;;;;5094602;28;20164;-79
2021/04/13 00:58:29;;;;;;;9.80;8.80;;;4.60;99.90;;;;;;5075543;28;20180;-81
2021/04/13 01:00:59;;;;;;;12.55;10.90;;;4.60;99.90;;;;;;5075942;28;20265;-81
2021/04/13 01:03:30;;;;;;;9.63;8.63;;;4.60;99.90;;;;;;5092687;28;20203;-80
2021/04/13 01:05:59;;;;;;;12.25;10.95;;;4.50;99.90;;;;;;5094150;28;20188;-79
2021/04/13 01:08:35;;;;;;;10.10;8.85;;;4.50;99.90;;;;;;5075831;28;20171;-80
2021/04/13 01:11:24;;;;;;;11.27;9.25;;;4.40;99.90;;;;;;5093751;28;20215;-79
2021/04/13 01:13:54;;;;;;;12.05;10.73;;;4.40;99.90;;;;;;5093835;28;20254;-80
2021/04/13 01:16:27;;;;;;;10.57;9.40;;;4.30;99.90;;;;;;5093671;28;20176;-80
2021/04/13 01:19:00;;;;;;;11.63;10.50;;;4.40;99.90;;;;;;5059330;28;20549;-80
2021/04/13 01:22:11;;;;;;;11.68;10.50;;;4.30;99.90;;;;;;5058829;28;20199;-79
2021/04/13 01:24:46;;;;;;;11.45;9.65;;;4.30;99.90;;;;;;5075545;28;20187;-79
2021/04/13 01:27:21;;;;;;;15.25;10.50;;;4.20;99.90;;;;;;5076455;28;20471;-81
2021/04/13 01:29:49;;;;;;;12.27;10.90;;;4.20;99.90;;;;;;5079774;28;20172;-80
2021/04/13 01:32:18;;;;;;;11.90;10.65;;;4.20;99.90;;;;;;5075545;28;20195;-79
2021/04/13 01:34:54;;;;;;;11.60;10.38;;;4.20;99.90;;;;;;5073959;28;20523;-79
2021/04/13 01:40:20;;;;;;;11.82;10.52;;;4.10;99.90;;;;;;5093097;28;20205;-84
2021/04/13 01:42:49;;;;;;;12.80;10.40;;;4.10;99.90;;;;;;5093093;28;20559;-80
2021/04/13 01:45:25;;;;;;;12.38;11.07;;;4.10;99.90;;;;;;5093348;28;20198;-80
2021/04/13 01:47:52;;;;;;;12.95;10.68;;;4.00;99.90;;;;;;5074768;28;20591;-80
2021/04/13 01:50:25;;;;;;;11.02;9.93;;;4.00;99.90;;;;;;5075105;28;20172;-79
2021/04/13 01:53:00;;;;;;;11.15;10.05;;;4.00;99.90;;;;;;5093293;28;20176;-80
2021/04/13 01:55:29;;;;;;;14.00;12.38;;;4.00;99.90;;;;;;5093218;28;20171;-80
2021/04/13 01:58:21;;;;;;;11.75;10.48;;;4.00;99.90;;;;;;5074395;28;20228;-80
2021/04/13 02:01:31;;;;;;;11.98;10.80;;;3.90;99.90;;;;;;5093158;28;20191;-80
2021/04/13 02:04:02;;;;;;;13.07;11.48;;;3.90;99.90;;;;;;5093329;28;20211;-80
2021/04/13 02:06:34;;;;;;;12.77;11.30;;;3.90;99.90;;;;;;5079835;28;20171;-81
2021/04/13 02:09:43;;;;;;;15.30;11.68;;;3.90;99.90;;;;;;5075192;28;20164;-81
2021/04/13 02:12:13;;;;;;;15.00;11.43;;;3.80;99.90;;;;;;5091608;28;20187;-81
2021/04/13 02:14:47;;;;;;;14.90;12.75;;;3.80;99.90;;;;;;5074979;28;20531;-81
2021/04/13 02:17:26;;;;;;;15.27;12.43;;;3.80;99.90;;;;;;5074318;28;20254;-81
2021/04/13 02:19:53;;;;;;;13.27;11.93;;;3.80;99.90;;;;;;5093390;28;20576;-81
2021/04/13 02:22:22;;;;;;;15.40;12.55;;;3.80;99.90;;;;;;5074532;28;20199;-80
2021/04/13 02:24:51;;;;;;;13.50;12.10;;;3.80;99.90;;;;;;5093728;28;20191;-80
2021/04/13 02:27:29;;;;;;;14.50;13.00;;;3.70;99.90;;;;;;5074291;28;20168;-80
2021/04/13 02:30:08;;;;;;;13.73;11.60;;;3.80;99.90;;;;;;5093977;28;20165;-81
2021/04/13 02:32:43;;;;;;;14.50;13.00;;;3.80;99.90;;;;;;5092354;28;20206;-82
2021/04/13 02:35:21;;;;;;;12.63;11.07;;;3.80;99.90;;;;;;5092398;28;20174;-81
2021/04/13 02:37:50;;;;;;;13.45;12.10;;;3.80;99.90;;;;;;5075711;28;20168;-80
2021/04/13 02:40:24;;;;;;;16.50;13.45;;;3.70;99.90;;;;;;5076121;28;20785;-81
2021/04/13 02:42:53;;;;;;;13.93;12.50;;;3.70;99.90;;;;;;5089693;28;20233;-81
2021/04/13 02:45:25;;;;;;;15.45;13.52;;;3.70;99.90;;;;;;5093430;28;20167;-81
2021/04/13 02:47:55;;;;;;;15.18;12.73;;;3.70;99.90;;;;;;5093598;28;20178;-81
2021/04/13 02:50:22;;;;;;;15.05;13.55;;;3.70;99.90;;;;;;5095711;28;20178;-80
2021/04/13 02:52:53;;;;;;;15.73;12.55;;;3.70;99.90;;;;;;5075586;28;20183;-80
2021/04/13 02:55:33;;;;;;;15.23;13.73;;;3.60;99.90;;;;;;5090875;28;20168;-81
2021/04/13 02:58:03;;;;;;;13.40;11.65;;;3.60;99.90;;;;;;5088008;28;20252;-81
2021/04/13 03:00:42;;;;;;;16.23;14.52;;;3.60;99.90;;;;;;5083694;28;20178;-81
2021/04/13 03:03:25;;;;;;;16.00;14.25;;;3.60;99.90;;;;;;5102040;28;20214;-81
2021/04/13 03:05:55;;;;;;;17.33;13.32;;;3.60;99.90;;;;;;5067014;28;20696;-81
2021/04/13 03:08:21;;;;;;;14.68;13.18;;;3.60;99.90;;;;;;5101031;28;20262;-81
2021/04/13 03:10:58;;;;;;;16.23;13.45;;;3.60;99.90;;;;;;5100240;28;20187;-82
2021/04/13 03:13:27;;;;;;;15.20;12.52;;;3.60;99.90;;;;;;5101560;28;20602;-81
2021/04/13 03:15:58;;;;;;;16.92;13.80;;;3.50;99.90;;;;;;5101607;28;20175;-82
2021/04/13 03:18:31;;;;;;;16.33;13.73;;;3.50;99.90;;;;;;5083255;28;20194;-80
2021/04/13 03:21:02;;;;;;;14.65;13.15;;;3.50;99.90;;;;;;5087150;28;20295;-81
2021/04/13 03:23:30;;;;;;;13.25;11.82;;;3.50;99.90;;;;;;5101442;28;20206;-80
2021/04/13 03:26:04;;;;;;;14.45;12.45;;;3.50;99.90;;;;;;5076092;28;20172;-80
2021/04/13 03:28:37;;;;;;;16.30;12.65;;;3.50;99.90;;;;;;5091880;28;20178;-81
2021/04/13 03:31:06;;;;;;;23.17;13.05;;;3.40;99.90;;;;;;5092250;28;20244;-81
2021/04/13 03:33:35;;;;;;;16.58;13.90;;;3.50;99.90;;;;;;5073974;28;20182;-81
2021/04/13 03:36:19;;;;;;;17.10;13.43;;;3.40;99.90;;;;;;5091685;28;20186;-81
2021/04/13 03:39:02;;;;;;;16.60;13.07;;;3.40;99.90;;;;;;5091368;28;20520;-81
2021/04/13 03:41:29;;;;;;;15.65;13.27;;;3.40;99.90;;;;;;5073749;28;20280;-80
2021/04/13 03:43:59;;;;;;;14.50;12.75;;;3.40;99.90;;;;;;5073255;28;20667;-79
2021/04/13 03:46:31;;;;;;;13.35;11.98;;;3.40;99.90;;;;;;5090864;28;20544;-80
2021/04/13 03:48:58;;;;;;;15.45;13.85;;;3.40;99.90;;;;;;5061976;28;20222;-79
2021/04/13 03:51:31;;;;;;;14.70;12.77;;;3.40;99.90;;;;;;5070920;28;20610;-79
2021/04/13 03:53:57;;;;;;;14.75;13.15;;;3.30;99.90;;;;;;5053331;28;20222;-80
2021/04/13 03:56:26;;;;;;;16.25;13.52;;;3.30;99.90;;;;;;5054028;28;20269;-80
2021/04/13 03:58:55;;;;;;;14.38;12.82;;;3.30;99.90;;;;;;5058065;28;20245;-80
2021/04/13 04:01:24;;;;;;;15.15;13.13;;;3.30;99.90;;;;;;5056786;28;20202;-80
2021/04/13 04:04:00;;;;;;;15.48;13.88;;;3.30;99.90;;;;;;5040311;28;20208;-79
2021/04/13 04:06:40;;;;;;;14.82;12.02;;;3.20;99.90;;;;;;5074273;28;20205;-80
2021/04/13 04:09:37;;;;;;;12.88;11.35;;;3.20;99.90;;;;;;5056922;28;20194;-80
2021/04/13 04:12:27;;;;;;;16.27;12.18;;;3.20;99.90;;;;;;5054020;28;20200;-81
2021/04/13 04:14:57;;;;;;;13.70;11.85;;;3.20;99.90;;;;;;5084280;28;20179;-81
2021/04/13 04:17:24;;;;;;;15.13;12.73;;;3.20;99.90;;;;;;5094415;28;20631;-79
2021/04/13 04:20:05;;;;;;;16.38;13.15;;;3.20;99.90;;;;;;5093725;28;20171;-80
2021/04/13 04:22:33;;;;;;;16.40;13.68;;;3.20;99.90;;;;;;5093079;28;20567;-79
2021/04/13 04:25:22;;;;;;;17.50;14.02;;;3.20;99.90;;;;;;5093680;28;20251;-79
2021/04/13 04:27:54;;;;;;;17.35;13.20;;;3.10;99.90;;;;;;5093903;28;20250;-80
2021/04/13 04:30:28;;;;;;;15.30;13.10;;;3.20;99.90;;;;;;5093496;28;20217;-80
2021/04/13 04:32:55;;;;;;;16.75;13.40;;;3.20;99.90;;;;;;5095172;28;20686;-81
2021/04/13 04:35:33;;;;;;;17.27;13.60;;;3.20;99.90;;;;;;5098506;28;20543;-81
2021/04/13 04:38:08;;;;;;;14.90;12.25;;;3.10;99.90;;;;;;5076432;28;20587;-80
2021/04/13 04:40:38;;;;;;;14.95;12.75;;;3.20;99.90;;;;;;5094622;28;20197;-80
2021/04/13 04:43:17;;;;;;;14.43;12.68;;;3.10;99.90;;;;;;5059774;28;20287;-79
2021/04/13 04:45:43;;;;;;;14.55;12.65;;;3.10;99.90;;;;;;5075682;28;20166;-79
2021/04/13 04:48:28;;;;;;;14.73;12.13;;;3.20;99.90;;;;;;5093742;28;20228;-79
2021/04/13 04:51:00;;;;;;;14.00;11.07;;;3.20;99.90;;;;;;5076131;28;20554;-79
2021/04/13 04:53:30;;;;;;;13.93;12.40;;;3.20;99.90;;;;;;5076051;28;20197;-80
2021/04/13 04:55:57;;;;;;;14.85;12.45;;;3.20;99.90;;;;;;5094260;28;20195;-80
2021/04/13 04:58:23;;;;;;;17.02;13.40;;;3.20;99.90;;;;;;5092755;28;20166;-77
2021/04/13 05:00:51;;;;;;;12.35;11.15;;;3.20;99.90;;;;;;5093833;28;20184;-77
2021/04/13 05:03:18;;;;;;;14.85;11.82;;;3.20;99.90;;;;;;5075793;28;20290;-77
2021/04/13 05:05:44;;;;;;;14.65;13.00;;;3.30;99.90;;;;;;5093887;28;20171;-78
2021/04/13 05:08:12;;;;;;;12.77;11.25;;;3.30;99.90;;;;;;5058722;28;20655;-77
2021/04/13 05:10:38;;;;;;;14.23;12.38;;;3.30;99.90;;;;;;5094353;28;20247;-77
2021/04/13 05:13:04;;;;;;;14.17;12.77;;;3.40;99.90;;;;;;5097889;28;20198;-77
2021/04/13 05:15:30;;;;;;;15.57;12.65;;;3.50;99.90;;;;;;5058951;28;20587;-77
2021/04/13 05:17:56;;;;;;;12.13;10.80;;;3.60;99.90;;;;;;5075371;28;20260;-75
2021/04/13 05:20:22;;;;;;;15.60;14.00;;;3.70;99.90;;;;;;5074999;28;20582;-77
2021/04/13 05:22:48;;;;;;;15.00;12.00;;;3.80;99.90;;;;;;5057870;28;20204;-78
2021/04/13 05:25:18;;;;;;;14.20;11.90;;;3.90;99.90;;;;;;5074746;28;20582;-76
2021/04/13 05:27:43;;;;;;;16.00;12.43;;;4.00;99.90;;;;;;5092755;28;20604;-75
2021/04/13 05:30:11;;;;;;;18.33;12.07;;;4.10;99.90;;;;;;5074923;28;20164;-76
2021/04/13 05:32:37;;;;;;;14.38;12.30;;;4.20;99.90;;;;;;5092927;28;20742;-77
2021/04/13 05:35:05;;;;;;;15.88;13.10;;;4.40;99.90;;;;;;5075445;28;20167;-76
2021/04/13 05:37:33;;;;;;;14.77;13.18;;;4.50;99.90;;;;;;5072553;28;20176;-77
2021/04/13 05:39:59;;;;;;;17.45;12.13;;;4.60;99.90;;;;;;5093200;28;20160;-77
2021/04/13 05:42:31;;;;;;;15.55;11.43;;;4.70;99.90;;;;;;5092871;28;20324;-77
2021/04/13 05:44:58;;;;;;;14.02;11.65;;;4.90;99.90;;;;;;5092862;28;20163;-77
2021/04/13 05:47:26;;;;;;;14.13;11.95;;;5.00;99.90;;;;;;5074408;28;20172;-76
2021/04/13 05:49:55;;;;;;;14.65;12.32;;;5.10;99.90;;;;;;5078137;28;20167;-77
2021/04/13 05:52:27;;;;;;;15.85;13.90;;;5.30;99.90;;;;;;5071634;28;20209;-76
2021/04/13 05:54:53;;;;;;;14.70;13.07;;;5.40;99.90;;;;;;5073647;28;20643;-76
2021/04/13 05:57:31;;;;;;;15.55;13.90;;;5.50;99.90;;;;;;5067332;28;20214;-76
2021/04/13 06:00:01;;;;;;;14.98;13.45;;;5.60;99.90;;;;;;5055156;28;21018;-76
2021/04/13 06:02:33;;;;;;;12.52;11.30;;;5.80;99.90;;;;;;5087361;28;20250;-74
2021/04/13 06:05:00;;;;;;;13.68;11.93;;;5.90;99.90;;;;;;5083130;28;20180;-76
2021/04/13 06:07:26;;;;;;;14.23;12.82;;;6.00;99.90;;;;;;5084023;28;20171;-76
2021/04/13 06:09:52;;;;;;;19.02;16.95;;;6.10;99.90;;;;;;5073027;28;21233;-77
2021/04/13 06:12:19;;;;;;;18.20;16.30;;;6.10;99.90;;;;;;5091274;28;20724;-78
2021/04/13 06:14:45;;;;;;;16.20;14.60;;;6.20;99.90;;;;;;5066028;28;20770;-76
2021/04/13 06:17:10;;;;;;;15.67;12.73;;;6.30;99.90;;;;;;5092432;28;20254;-75
2021/04/13 06:19:39;;;;;;;13.67;12.20;;;6.40;99.90;;;;;;5084085;28;20629;-76
2021/04/13 06:22:05;;;;;;;11.95;9.98;;;6.60;99.90;;;;;;5091671;28;20199;-77
2021/04/13 06:24:31;;;;;;;13.57;11.60;;;6.70;99.90;;;;;;5092853;28;20759;-76
2021/04/13 06:26:57;;;;;;;12.70;11.40;;;6.90;99.90;;;;;;5095185;28;20221;-77
2021/04/13 06:29:22;;;;;;;14.00;10.20;;;7.00;99.90;;;;;;5074484;28;20199;-76
2021/04/13 06:31:57;;;;;;;14.73;10.30;;;7.10;99.90;;;;;;5090918;28;20199;-76
2021/04/13 06:34:23;;;;;;;10.80;9.80;;;7.20;99.90;;;;;;5074627;28;20536;-78
2021/04/13 06:36:49;;;;;;;12.17;10.27;;;7.20;99.90;;;;;;5073872;28;21317;-77
2021/04/13 06:39:17;;;;;;;13.87;10.17;;;7.40;99.90;;;;;;5092137;28;20174;-77
2021/04/13 06:42:02;;;;;;;11.65;10.25;;;7.50;99.90;;;;;;5092240;28;20188;-77
2021/04/13 06:44:48;;;;;;;14.48;10.52;;;7.50;99.90;;;;;;5092252;28;20179;-77
2021/04/13 06:47:27;;;;;;;11.60;9.57;;;7.70;99.90;;;;;;5091679;28;20163;-77
2021/04/13 06:49:59;;;;;;;12.38;10.68;;;7.80;99.90;;;;;;5091969;28;20171;-76
2021/04/13 06:52:45;;;;;;;14.85;12.95;;;7.90;99.90;;;;;;5090999;28;21100;-77
2021/04/13 06:55:33;;;;;;;11.70;10.10;;;7.90;99.90;;;;;;5091678;28;20175;-76
2021/04/13 06:58:14;;;;;;;10.82;9.73;;;8.00;99.90;;;;;;5083626;28;20574;-77
2021/04/13 07:01:01;;;;;;;10.30;9.18;;;8.10;99.90;;;;;;5091948;28;20283;-76
2021/04/13 07:03:35;;;;;;;10.27;9.27;;;8.20;99.90;;;;;;5078203;28;20198;-76
2021/04/13 07:06:12;;;;;;;10.95;8.70;;;8.30;99.90;;;;;;5073613;28;20224;-76
2021/04/13 07:08:42;;;;;;;13.30;10.25;;;8.40;99.90;;;;;;5091458;28;20170;-77
2021/04/13 07:11:30;;;;;;;11.25;10.00;;;8.50;99.90;;;;;;5091842;28;20225;-77
2021/04/13 07:14:23;;;;;;;12.77;10.10;;;8.60;99.90;;;;;;5073589;28;20167;-77
2021/04/13 07:16:59;;;;;;;8.43;7.53;;;8.70;99.90;;;;;;5091082;28;20213;-77
2021/04/13 07:19:39;;;;;;;10.52;8.70;;;8.80;99.90;;;;;;5073689;28;20163;-76
2021/04/13 07:22:28;;;;;;;13.25;8.32;;;8.90;99.90;;;;;;5072480;28;20256;-78
2021/04/13 07:24:58;;;;;;;10.85;8.73;;;8.90;99.90;;;;;;5073381;28;20263;-77
2021/04/13 07:27:39;;;;;;;9.45;8.27;;;9.00;99.90;;;;;;5091194;28;20172;-78
2021/04/13 07:30:14;;;;;;;8.98;8.18;;;9.10;99.90;;;;;;5073477;28;20203;-78
2021/04/13 07:32:42;;;;;;;11.45;8.90;;;9.10;99.90;;;;;;5094058;28;20573;-79
2021/04/13 07:35:13;;;;;;;7.80;7.00;;;9.20;99.90;;;;;;5078262;28;20171;-78
2021/04/13 07:37:42;;;;;;;11.55;7.80;;;9.30;99.90;;;;;;5061257;28;20183;-77
2021/04/13 07:40:35;;;;;;;8.48;7.60;;;9.40;99.90;;;;;;5080929;28;20163;-78
2021/04/13 07:43:13;;;;;;;10.43;8.45;;;9.50;99.90;;;;;;5095660;28;20575;-78
2021/04/13 07:45:51;;;;;;;9.02;7.93;;;9.60;99.90;;;;;;5077703;28;20225;-78
2021/04/13 07:48:19;;;;;;;10.35;7.72;;;9.60;99.90;;;;;;5095620;28;20171;-80
2021/04/13 07:50:51;;;;;;;8.52;7.22;;;9.70;99.90;;;;;;5060743;28;20223;-79
2021/04/13 07:53:22;;;;;;;11.60;7.65;;;9.70;99.90;;;;;;5060535;28;20229;-79
2021/04/13 07:55:52;;;;;;;10.43;8.57;;;9.80;99.90;;;;;;5077355;28;20178;-77
2021/04/13 07:58:27;;;;;;;11.70;8.90;;;9.80;99.90;;;;;;5076709;28;20168;-77
2021/04/13 08:00:53;;;;;;;9.52;8.55;;;9.90;99.90;;;;;;5076796;28;20183;-77
2021/04/13 08:03:20;;;;;;;9.77;5.53;;;9.90;99.90;;;;;;5094899;28;20196;-77
2021/04/13 08:05:52;;;;;;;8.43;6.72;;;10.00;99.90;;;;;;5095001;28;20330;-78
2021/04/13 08:08:34;;;;;;;6.70;5.70;;;10.00;99.90;;;;;;5076292;28;20176;-78
2021/04/13 08:11:05;;;;;;;8.13;5.95;;;10.10;99.90;;;;;;5094469;28;20180;-77
2021/04/13 08:13:34;;;;;;;9.75;6.43;;;10.10;99.90;;;;;;5076751;28;20250;-77
2021/04/13 08:16:00;;;;;;;8.88;6.78;;;10.20;99.90;;;;;;5074823;28;20171;-77
2021/04/13 08:18:37;;;;;;;8.35;7.28;;;10.20;99.90;;;;;;5060124;28;20259;-77
2021/04/13 08:21:25;;;;;;;9.18;6.55;;;10.30;99.90;;;;;;5074497;28;20203;-77
2021/04/13 08:23:56;;;;;;;8.27;6.38;;;10.40;99.90;;;;;;5056811;28;20237;-76
2021/04/13 08:26:44;;;;;;;7.45;6.13;;;10.60;99.90;;;;;;5056434;28;20538;-76
2021/04/13 08:29:12;;;;;;;7.72;5.72;;;10.70;99.90;;;;;;5074315;28;20176;-76
2021/04/13 08:35:10;;;;;;;5.70;5.20;;;10.90;99.90;;;;;;4973349;28;20538;-77
2021/04/13 08:37:53;;;;;;;7.23;6.47;;;11.00;99.90;;;;;;5038437;28;20188;-77
2021/04/13 08:40:34;;;;;;;7.68;5.78;;;11.10;99.90;;;;;;5073478;28;20648;-77
2021/04/13 08:43:20;;;;;;;6.25;5.00;;;11.10;99.90;;;;;;5051613;28;20210;-76
2021/04/13 08:46:10;;;;;;;5.97;4.68;;;11.30;99.90;;;;;;5092928;28;20254;-77
2021/04/13 08:48:48;;;;;;;5.65;4.65;;;11.60;99.90;;;;;;5039982;28;20165;-78
2021/04/13 08:51:45;;;;;;;7.90;5.53;;;12.20;99.90;;;;;;5088943;28;20274;-77
2021/04/13 08:54:21;;;;;;;7.40;4.20;;;13.00;99.90;;;;;;5043554;28;20161;-77
2021/04/13 08:57:11;;;;;;;6.00;3.60;;;14.20;99.90;;;;;;5075618;28;20579;-78
2021/04/13 08:59:52;;;;;;;5.53;3.40;;;15.40;99.90;;;;;;5076161;28;20589;-78
2021/04/13 09:02:28;;;;;;;5.03;3.40;;;16.80;99.90;;;;;;5076741;28;20627;-77
2021/04/13 09:05:37;;;;;;;6.53;3.30;;;18.10;99.90;;;;;;5059484;28;20589;-77
2021/04/13 09:08:21;;;;;;;3.60;1.90;;;19.30;99.90;;;;;;5064610;28;20608;-76
2021/04/13 09:11:22;;;;;;;5.97;2.80;;;20.50;99.90;;;;;;5084022;28;20609;-77
2021/04/13 09:14:26;;;;;;;5.77;3.20;;;21.30;99.90;;;;;;5058696;28;20573;-76
2021/04/13 09:17:00;;;;;;;4.50;3.10;;;22.00;99.90;;;;;;5074986;28;20581;-76
2021/04/13 09:19:31;;;;;;;6.23;3.47;;;22.50;99.90;;;;;;5075186;28;20684;-77
2021/04/13 09:22:14;;;;;;;4.20;2.70;;;22.50;99.90;;;;;;5090812;28;21180;-77
2021/04/13 09:24:43;;;;;;;5.03;3.10;;;22.30;99.50;;;;;;5074032;28;20651;-75
2021/04/13 09:27:23;;;;;;;5.33;2.90;;;22.30;98.30;;;;;;5090123;28;21152;-76
2021/04/13 09:29:51;;;;;;;3.43;3.03;;;22.50;97.60;;;;;;5095729;28;20568;-78
2021/04/13 09:32:23;;;;;;;5.53;2.97;;;22.50;97.20;;;;;;5078895;28;20612;-78
2021/04/13 09:35:07;;;;;;;4.67;1.70;;;22.00;94.90;;;;;;5073584;28;20631;-77
2021/04/13 09:37:39;;;;;;;2.60;1.77;;;21.60;93.10;;;;;;5075486;28;21148;-77
2021/04/13 09:40:36;;;;;;;4.20;2.07;;;21.80;94.40;;;;;;5059628;28;20611;-78
2021/04/13 09:43:40;;;;;;;5.93;2.47;;;22.30;96.10;;;;;;5063866;28;20633;-77
2021/04/13 09:46:17;;;;;;;5.10;3.30;;;22.70;94.20;;;;;;5077194;28;20577;-78
2021/04/13 09:49:04;;;;;;;2.53;1.57;;;23.00;93.50;;;;;;5076272;28;20566;-77
2021/04/13 09:51:41;;;;;;;2.63;1.87;;;22.80;90.30;;;;;;5093258;28;20593;-78
2021/04/13 09:54:07;;;;;;;2.97;1.37;;;22.20;86.50;;;;;;5071557;28;20599;-77
2021/04/13 09:56:36;;;;;;;2.53;1.20;;;21.60;86.10;;;;;;5079690;28;21380;-77
2021/04/13 09:59:10;;;;;;;4.20;2.57;;;21.20;86.10;;;;;;5075391;28;20172;-76
2021/04/13 10:02:01;;;;;;;3.23;1.60;;;21.00;87.40;;;;;;5053585;28;21171;-77
2021/04/13 10:04:32;;;;;;;2.87;1.90;;;20.60;85.70;;;;;;5091745;28;20660;-78
2021/04/13 10:07:19;;;;;;;3.00;2.40;;;20.10;85.30;;;;;;5074752;28;20581;-76
2021/04/13 10:09:46;;;;;;;3.57;2.37;;;19.50;81.40;;;;;;5096526;28;20568;-76
2021/04/13 10:12:23;;;;;;;3.70;2.60;;;18.90;81.90;;;;;;5092716;28;20594;-76
2021/04/13 10:15:19;;;;;;;4.73;1.90;;;18.30;80.30;;;;;;5074521;28;20983;-76
2021/04/13 10:17:59;;;;;;;2.23;1.50;;;17.70;80.60;;;;;;5065273;28;21171;-76
2021/04/13 10:20:52;;;;;;;2.63;1.27;;;17.30;81.80;;;;;;5071185;28;20574;-77
2021/04/13 10:23:24;;;;;;;4.47;1.70;;;17.40;86.40;;;;;;5054438;28;20634;-77
2021/04/13 10:26:22;;;;;;;5.17;2.10;;;17.90;90.30;;;;;;5071549;28;20571;-78
2021/04/13 10:28:56;;;;;;;3.50;1.90;;;18.80;92.00;;;;;;5054845;28;20570;-77
2021/04/13 10:31:56;;;;;;;3.30;1.70;;;19.50;91.80;;;;;;5037797;28;20632;-78
2021/04/13 10:34:54;;;;;;;5.43;1.93;;;19.80;90.10;;;;;;5054292;28;20609;-77
2021/04/13 10:37:32;;;;;;;2.77;1.70;;;20.20;90.80;;;;;;5053878;28;20613;-77
2021/04/13 10:40:19;;;;;;;6.10;1.90;;;20.80;91.20;;;;;;5072275;28;20579;-77
2021/04/13 10:43:32;;;;;;;6.53;1.53;;;21.10;88.60;;;;;;5072100;28;20640;-76
2021/04/13 10:46:24;;;;;;;2.93;1.73;;;21.30;84.80;;;;;;5074355;28;20571;-77
2021/04/13 10:49:03;;;;;;;5.60;2.07;;;21.20;83.50;;;;;;5054764;28;20657;-77
2021/04/13 10:51:59;;;;;;;5.30;2.03;;;21.30;81.90;;;;;;5071957;28;20594;-77
2021/04/13 10:54:50;;;;;;;3.40;1.80;;;21.40;83.40;;;;;;5037900;28;20622;-76
2021/04/13 10:57:40;;;;;;;7.50;2.73;;;21.70;82.80;;;;;;5071557;28;21122;-76
2021/04/13 11:00:47;;;;;;;2.77;2.20;;;21.70;81.10;;;;;;5054237;28;20984;-76
2021/04/13 11:03:42;;;;;;;3.10;1.80;;;21.60;77.80;;;;;;5059543;28;20558;-77
2021/04/13 11:06:50;;;;;;;3.30;1.83;;;21.30;75.00;;;;;;5098049;28;20586;-78
2021/04/13 11:09:53;;;;;;;3.23;2.50;;;20.90;75.10;;;;;;5076628;28;20584;-77
2021/04/13 11:12:27;;;;;;;2.57;1.73;;;20.40;73.60;;;;;;5096595;28;20609;-76
2021/04/13 11:15:44;;;;;;;3.13;1.30;;;19.70;68.10;;;;;;5078325;28;20583;-77
2021/04/13 11:18:35;;;;;;;2.43;1.30;;;19.10;68.60;;;;;;5033970;28;20588;-77
2021/04/13 11:21:27;;;;;;;3.40;1.80;;;18.30;68.50;;;;;;5091664;28;20616;-76
2021/04/13 11:24:18;;;;;;;2.93;1.50;;;17.90;69.80;;;;;;5327431;22;21073;-79
2021/04/13 11:26:52;;;;;;;5.00;2.00;;;17.80;73.30;;;;;;5063825;28;20609;-77
2021/04/13 11:29:33;;;;;;;4.70;2.00;;;18.10;75.70;;;;;;5056092;28;20620;-77
2021/04/13 11:32:29;;;;;;;5.30;1.70;;;18.30;73.00;;;;;;5066825;28;20585;-77
2021/04/13 11:35:20;;;;;;;2.37;1.20;;;18.80;76.70;;;;;;5075418;28;20700;-77
2021/04/13 11:38:05;;;;;;;2.20;1.43;;;19.10;64.30;;;;;;5073195;28;20592;-78
2021/04/13 11:41:10;;;;;;;2.57;1.10;;;19.50;77.80;;;;;;5073566;28;20573;-78
2021/04/13 11:43:45;;;;;;;2.93;1.43;;;19.90;78.70;;;;;;5073101;28;20622;-78
2021/04/13 11:46:16;;;;;;;2.33;1.23;;;20.20;76.70;;;;;;5039810;28;20593;-78
2021/04/13 11:49:06;;;;;;;5.47;1.63;;;20.30;75.30;;;;;;5073068;28;20577;-77
2021/04/13 11:51:37;;;;;;;2.43;1.10;;;20.30;71.00;;;;;;5073116;28;20967;-77
2021/04/13 11:54:43;;;;;;;3.47;1.10;;;20.00;67.20;;;;;;5055975;28;20641;-77
2021/04/13 11:57:20;;;;;;;5.27;1.00;;;19.50;63.30;;;;;;5056173;28;20652;-77
2021/04/13 12:00:26;;;;;;;2.33;0.90;;;18.80;61.90;;;;;;5092773;28;20565;-78
2021/04/13 12:03:34;;;;;;;2.53;0.90;;;18.20;61.90;;;;;;5048259;28;20570;-77
2021/04/13 12:06:05;;;;;;;3.20;1.17;;;17.60;61.70;;;;;;5056289;28;20582;-79
2021/04/13 12:08:31;;;;;;;3.07;1.37;;;17.10;64.10;;;;;;5055445;28;20891;-79
2021/04/13 12:11:07;;;;;;;2.40;1.10;;;16.90;64.80;;;;;;5056377;28;20647;-79
2021/04/13 12:13:41;;;;;;;3.58;1.50;;;16.90;66.40;;;;;;5055911;28;20741;-78
2021/04/13 12:16:16;;;;;;;3.00;0.80;;;17.00;61.80;;;;;;5072855;28;20244;-78
2021/04/13 12:18:47;;;;;;;2.60;0.90;;;17.10;65.60;;;;;;5057146;28;20561;-79
2021/04/13 12:21:22;;;;;;;2.23;0.87;;;17.30;67.90;;;;;;5076989;28;20913;-79
2021/04/13 12:23:53;;;;;;;1.97;0.90;;;17.50;66.50;;;;;;5059784;28;21448;-79
2021/04/13 12:26:37;;;;;;;6.43;0.80;;;17.80;68.70;;;;;;5059769;28;20566;-79
2021/04/13 12:29:29;;;;;;;4.17;1.80;;;17.70;65.40;;;;;;5077907;28;21048;-79
2021/04/13 12:32:14;;;;;;;2.10;1.23;;;17.80;64.80;;;;;;5075941;28;20622;-78
2021/04/13 12:34:57;;;;;;;2.80;0.90;;;17.90;65.70;;;;;;5076176;28;20598;-78
2021/04/13 12:37:45;;;;;;;3.20;0.90;;;17.90;66.00;;;;;;5059037;28;20649;-76
2021/04/13 12:40:20;;;;;;;1.87;0.83;;;18.00;64.90;;;;;;5075799;28;20565;-76
2021/04/13 12:43:08;;;;;;;2.83;1.00;;;18.20;65.70;;;;;;5042616;28;20573;-78
2021/04/13 12:45:55;;;;;;;3.63;1.07;;;18.20;64.90;;;;;;5093694;28;20581;-76
2021/04/13 12:48:52;;;;;;;2.20;0.70;;;18.20;61.30;;;;;;5075340;28;20581;-76
2021/04/13 12:51:33;;;;;;;2.30;0.70;;;18.20;62.50;;;;;;5039401;28;20578;-76
2021/04/13 12:54:08;;;;;;;2.53;0.70;;;18.10;60.90;;;;;;5055228;28;20873;-76
2021/04/13 12:56:37;;;;;;;2.30;0.67;;;18.00;58.20;;;;;;5072078;28;20217;-75
2021/04/13 12:59:12;;;;;;;1.70;0.90;;;17.90;60.10;;;;;;5072446;28;20914;-75
2021/04/13 13:01:44;;;;;;;1.97;0.70;;;17.90;60.50;;;;;;5055367;28;20570;-76
2021/04/13 13:04:19;;;;;;;1.73;0.77;;;17.90;59.60;;;;;;5038669;28;20606;-77
2021/04/13 13:06:55;;;;;;;3.00;1.60;;;17.70;59.50;;;;;;5060965;28;20580;-76
2021/04/13 13:09:34;;;;;;;1.93;0.73;;;17.50;58.60;;;;;;5093259;28;20565;-77
2021/04/13 13:12:05;;;;;;;2.40;1.20;;;17.30;58.40;;;;;;5058646;28;20569;-77
2021/04/13 13:14:43;;;;;;;4.10;0.80;;;17.00;56.70;;;;;;5058331;28;20652;-79
2021/04/13 13:17:09;;;;;;;1.80;0.60;;;16.70;56.60;;;;;;5093339;28;20553;-80
2021/04/13 13:19:55;;;;;;;7.23;0.70;;;16.50;57.30;;;;;;5059672;28;20566;-78
2021/04/13 13:22:26;;;;;;;2.20;0.63;;;16.30;56.90;;;;;;5058304;28;20570;-78
2021/04/13 13:24:53;;;;;;;4.68;0.90;;;16.10;57.10;;;;;;5057377;28;20721;-78
2021/04/13 13:27:33;;;;;;;1.40;0.70;;;15.70;55.30;;;;;;5042653;28;20585;-77
2021/04/13 13:30:10;;;;;;;3.10;0.70;;;15.60;56.50;;;;;;5075202;28;20661;-78
2021/04/13 13:32:37;;;;;;;2.70;0.77;;;15.60;56.60;;;;;;5094200;28;20950;-77
2021/04/13 13:35:07;;;;;;;2.13;0.60;;;15.50;57.10;;;;;;5075851;28;21027;-78
2021/04/13 13:37:49;;;;;;;2.23;0.70;;;15.40;57.30;;;;;;5073641;28;21210;-77
2021/04/13 13:40:21;;;;;;;2.60;0.73;;;15.30;57.30;;;;;;5038305;28;20578;-78